createdAt,value
2018-12-10T00:01:22.243Z,38.00
2018-12-10T00:03:50.443Z,37.20
2018-12-10T00:06:18.618Z,37.20
2018-12-10T00:08:46.773Z,37.23
2018-12-10T00:11:14.971Z,37.53
2018-12-10T00:13:43.147Z,37.90
2018-12-10T00:16:11.314Z,37.93
2018-12-10T00:18:39.554Z,37.77
2018-12-10T00:21:07.715Z,38.03
2018-12-10T00:23:36.277Z,37.33
2018-12-10T00:26:04.553Z,37.87
2018-12-10T00:28:32.757Z,37.33
2018-12-10T00:31:00.924Z,37.50
2018-12-10T00:33:29.243Z,38.20
2018-12-10T00:35:57.404Z,37.93
2018-12-10T00:38:25.577Z,37.77
2018-12-10T00:40:53.767Z,38.30
2018-12-10T00:43:21.951Z,37.93
2018-12-10T00:45:50.123Z,37.83
2018-12-10T00:48:18.415Z,37.97
2018-12-10T00:50:46.641Z,38.20
2018-12-10T00:53:14.819Z,37.90
2018-12-10T00:55:43.092Z,37.63
2018-12-10T00:58:11.259Z,38.07
2018-12-10T01:00:39.411Z,38.07
2018-12-10T01:03:07.604Z,38.47
2018-12-10T01:05:35.761Z,38.93
2018-12-10T01:08:04.337Z,37.70
2018-12-10T01:10:32.523Z,37.97
2018-12-10T01:13:00.790Z,37.80
2018-12-10T01:15:29.248Z,38.00
2018-12-10T01:17:58.304Z,38.20
2018-12-10T01:20:26.480Z,38.17
2018-12-10T01:22:54.773Z,38.37
2018-12-10T01:25:22.984Z,38.27
2018-12-10T01:27:51.291Z,37.90
2018-12-10T01:30:19.448Z,38.03
2018-12-10T01:32:47.925Z,38.20
2018-12-10T01:35:16.077Z,38.07
2018-12-10T01:37:44.244Z,37.93
2018-12-10T01:40:12.991Z,38.50
2018-12-10T01:42:41.165Z,37.77
2018-12-10T01:45:10.190Z,38.40
2018-12-10T01:47:38.380Z,38.33
2018-12-10T01:50:06.648Z,38.27
2018-12-10T01:52:35.352Z,38.07
2018-12-10T01:55:04.047Z,38.47
2018-12-10T01:57:32.197Z,38.60
2018-12-10T02:00:00.340Z,37.90
2018-12-10T02:02:28.549Z,37.87
2018-12-10T02:04:56.723Z,37.50
2018-12-10T02:07:24.878Z,37.57
2018-12-10T02:09:53.072Z,37.83
2018-12-10T02:12:22.740Z,38.33
2018-12-10T02:14:51.772Z,38.07
2018-12-10T02:17:19.987Z,38.27
2018-12-10T02:19:48.249Z,37.53
2018-12-10T02:22:16.755Z,37.33
2018-12-10T02:24:45.100Z,37.37
2018-12-10T02:27:13.263Z,37.53
2018-12-10T02:29:41.524Z,37.70
2018-12-10T02:32:09.979Z,37.27
2018-12-10T02:34:38.128Z,37.80
2018-12-10T02:37:06.286Z,37.00
2018-12-10T02:39:34.556Z,37.47
2018-12-10T02:42:02.727Z,37.33
2018-12-10T02:44:30.933Z,38.33
2018-12-10T02:46:59.116Z,37.63
2018-12-10T02:49:27.282Z,37.53
2018-12-10T02:51:55.455Z,36.90
2018-12-10T02:54:24.532Z,37.00
2018-12-10T02:56:52.695Z,36.63
2018-12-10T02:59:20.886Z,37.13
2018-12-10T03:01:49.308Z,37.47
2018-12-10T03:04:17.493Z,37.53
2018-12-10T03:06:45.911Z,37.17
2018-12-10T03:09:14.180Z,37.20
2018-12-10T03:11:42.611Z,37.43
2018-12-10T03:14:10.815Z,36.73
2018-12-10T03:16:39.140Z,37.33
2018-12-10T03:19:07.303Z,37.27
2018-12-10T03:21:35.697Z,37.03
2018-12-10T03:24:03.971Z,36.90
2018-12-10T03:26:32.174Z,36.43
2018-12-10T03:29:00.680Z,36.43
2018-12-10T03:31:28.877Z,37.03
2018-12-10T03:33:57.548Z,36.70
2018-12-10T03:36:25.725Z,36.80
2018-12-10T03:38:53.871Z,37.10
2018-12-10T03:41:22.032Z,37.17
2018-12-10T03:43:51.681Z,36.80
2018-12-10T03:46:19.843Z,36.47
2018-12-10T03:48:48.349Z,36.73
2018-12-10T03:51:16.510Z,37.33
2018-12-10T03:53:44.672Z,36.13
2018-12-10T03:56:12.818Z,36.57
2018-12-10T03:58:41.036Z,37.13
2018-12-10T04:01:09.940Z,36.77
2018-12-10T04:03:38.613Z,37.13
2018-12-10T04:06:06.789Z,36.93
2018-12-10T04:08:34.963Z,37.07
2018-12-10T04:11:03.113Z,36.87
2018-12-10T04:13:31.367Z,37.30
2018-12-10T04:15:59.954Z,36.20
2018-12-10T04:18:28.120Z,37.37
2018-12-10T04:20:56.296Z,37.23
2018-12-10T04:23:24.460Z,37.77
2018-12-10T04:25:53.421Z,37.77
2018-12-10T04:28:22.155Z,36.90
2018-12-10T04:30:52.663Z,36.83
2018-12-10T04:33:20.830Z,36.87
2018-12-10T04:35:49.796Z,36.73
2018-12-10T04:38:17.969Z,37.20
2018-12-10T04:40:46.143Z,37.33
2018-12-10T04:43:14.320Z,36.87
2018-12-10T04:45:43.415Z,36.73
2018-12-10T04:48:11.587Z,36.77
2018-12-10T04:50:39.729Z,36.70
2018-12-10T04:53:07.869Z,36.63
2018-12-10T04:55:36.213Z,36.73
2018-12-10T04:58:05.241Z,37.00
2018-12-10T05:00:33.659Z,37.10
2018-12-10T05:03:02.469Z,36.70
2018-12-10T05:05:30.676Z,36.43
2018-12-10T05:07:58.842Z,36.70
2018-12-10T05:10:27.347Z,36.53
2018-12-10T05:12:55.523Z,36.70
2018-12-10T05:15:23.699Z,37.23
2018-12-10T05:17:51.878Z,37.20
2018-12-10T05:20:21.775Z,36.77
2018-12-10T05:22:49.988Z,36.97
2018-12-10T05:25:18.170Z,36.93
2018-12-10T05:27:46.356Z,37.47
2018-12-10T05:30:14.506Z,37.10
2018-12-10T05:32:42.673Z,36.93
2018-12-10T05:35:11.028Z,36.43
2018-12-10T05:37:39.178Z,37.20
2018-12-10T05:40:07.659Z,36.67
2018-12-10T05:42:35.823Z,36.57
2018-12-10T05:45:05.125Z,37.23
2018-12-10T05:47:33.341Z,37.67
2018-12-10T05:50:01.503Z,37.53
2018-12-10T05:52:29.780Z,37.07
2018-12-10T05:54:57.953Z,37.50
2018-12-10T05:57:26.095Z,37.43
2018-12-10T05:59:54.246Z,37.80
2018-12-10T06:02:23.125Z,37.90
2018-12-10T06:04:51.276Z,37.73
2018-12-10T06:07:19.454Z,37.47
2018-12-10T06:09:47.641Z,37.30
2018-12-10T06:12:15.831Z,37.00
2018-12-10T06:14:43.986Z,37.37
2018-12-10T06:17:12.158Z,37.87
2018-12-10T06:19:40.692Z,37.97
2018-12-10T06:22:08.900Z,37.37
2018-12-10T06:24:37.081Z,37.87
2018-12-10T06:27:05.244Z,37.90
2018-12-10T06:29:33.400Z,37.57
2018-12-10T06:32:01.565Z,37.93
2018-12-10T06:34:29.718Z,37.97
2018-12-10T06:36:57.879Z,37.90
2018-12-10T06:39:26.422Z,37.97
2018-12-10T06:41:54.575Z,38.40
2018-12-10T06:44:22.724Z,38.10
2018-12-10T06:46:50.913Z,37.93
2018-12-10T06:49:19.065Z,38.23
2018-12-10T06:51:47.382Z,38.23
2018-12-10T06:54:15.578Z,37.80
2018-12-10T06:56:43.743Z,37.97
2018-12-10T06:59:12.844Z,38.47
2018-12-10T07:01:41.883Z,37.73
2018-12-10T07:04:11.014Z,38.17
2018-12-10T07:06:39.293Z,38.17
2018-12-10T07:09:07.569Z,38.47
2018-12-10T07:11:35.791Z,38.20
2018-12-10T07:14:04.076Z,38.60
2018-12-10T07:16:32.265Z,38.17
2018-12-10T07:19:00.452Z,38.00
2018-12-10T07:21:28.607Z,38.10
2018-12-10T07:23:57.123Z,38.20
2018-12-10T07:26:25.270Z,38.20
2018-12-10T07:28:53.913Z,37.73
2018-12-10T07:31:22.127Z,38.10
2018-12-10T07:33:50.465Z,38.47
2018-12-10T07:36:18.631Z,38.57
2018-12-10T07:38:46.819Z,38.27
2018-12-10T07:41:14.985Z,38.47
2018-12-10T07:43:43.484Z,38.43
2018-12-10T07:46:11.665Z,38.17
2018-12-10T07:48:39.824Z,37.90
2018-12-10T07:51:07.997Z,37.87
2018-12-10T07:53:36.231Z,37.70
2018-12-10T07:56:04.499Z,37.80
2018-12-10T07:58:32.690Z,38.10
2018-12-10T08:01:00.879Z,37.83
2018-12-10T08:03:29.276Z,37.70
2018-12-10T08:05:57.444Z,38.40
2018-12-10T08:08:25.631Z,37.23
2018-12-10T08:10:53.803Z,37.27
2018-12-10T08:13:21.993Z,37.33
2018-12-10T08:15:50.166Z,38.27
2018-12-10T08:18:20.282Z,38.23
2018-12-10T08:20:48.634Z,37.90
2018-12-10T08:23:16.824Z,37.80
2018-12-10T08:25:45.016Z,37.73
2018-12-10T08:28:13.342Z,37.70
2018-12-10T08:30:41.638Z,37.77
2018-12-10T08:33:09.794Z,38.30
2018-12-10T08:35:40.927Z,37.80
2018-12-10T08:38:08.648Z,38.33
2018-12-10T08:40:36.899Z,38.30
2018-12-10T08:43:05.070Z,38.30
2018-12-10T08:45:33.510Z,38.57
2018-12-10T08:48:01.670Z,38.63
2018-12-10T08:50:29.847Z,38.57
2018-12-10T08:52:58.010Z,38.37
2018-12-10T08:55:26.227Z,38.07
2018-12-10T08:57:54.603Z,38.40
2018-12-10T09:00:22.753Z,38.00
2018-12-10T09:02:50.933Z,38.07
2018-12-10T09:05:19.440Z,38.70
2018-12-10T09:07:47.608Z,37.63
2018-12-10T09:10:15.783Z,37.87
2018-12-10T09:12:47.205Z,37.97
2018-12-10T09:15:15.161Z,38.47
2018-12-10T09:17:43.329Z,38.23
2018-12-10T09:20:11.506Z,38.40
2018-12-10T09:22:39.668Z,38.60
2018-12-10T09:25:07.941Z,37.93
2018-12-10T09:27:36.147Z,38.13
2018-12-10T09:30:06.864Z,38.33
2018-12-10T09:32:35.595Z,38.27
2018-12-10T09:35:04.412Z,38.40
2018-12-10T09:37:32.567Z,38.60
2018-12-10T09:40:00.730Z,38.30
2018-12-10T09:42:29.045Z,38.03
2018-12-10T09:44:57.202Z,38.37
2018-12-10T09:47:25.356Z,38.23
2018-12-10T09:49:53.603Z,38.60
2018-12-10T09:52:21.809Z,38.10
2018-12-10T09:54:50.712Z,38.70
2018-12-10T09:57:18.869Z,38.07
2018-12-10T09:59:47.172Z,38.57
2018-12-10T10:02:15.533Z,40.50
2018-12-10T10:04:43.681Z,39.97
2018-12-10T10:07:11.861Z,39.40
2018-12-10T10:09:40.024Z,38.93
2018-12-10T10:12:08.195Z,38.93
2018-12-10T10:14:36.927Z,38.83
2018-12-10T10:17:05.093Z,38.43
2018-12-10T10:19:33.254Z,37.90
2018-12-10T10:22:01.434Z,38.57
2018-12-10T10:24:29.608Z,38.90
2018-12-10T10:26:57.780Z,38.77
2018-12-10T10:29:25.968Z,38.37
2018-12-10T10:31:54.132Z,38.80
2018-12-10T10:34:22.288Z,38.27
2018-12-10T10:36:50.457Z,39.23
2018-12-10T10:39:18.632Z,38.90
2018-12-10T10:41:46.837Z,39.63
2018-12-10T10:44:15.042Z,39.33
2018-12-10T10:46:43.207Z,39.70
2018-12-10T10:49:11.359Z,39.07
2018-12-10T10:51:39.531Z,38.77
2018-12-10T10:54:08.443Z,39.40
2018-12-10T10:56:36.626Z,39.50
2018-12-10T10:59:04.803Z,39.50
2018-12-10T11:01:38.409Z,40.43
2018-12-10T11:04:06.569Z,39.80
2018-12-10T11:06:34.746Z,40.10
2018-12-10T11:09:04.789Z,39.40
2018-12-10T11:11:32.960Z,38.97
2018-12-10T11:14:01.421Z,39.70
2018-12-10T11:16:29.593Z,39.30
2018-12-10T11:18:57.763Z,38.97
2018-12-10T11:21:25.951Z,38.67
2018-12-10T11:23:54.121Z,38.93
2018-12-10T11:26:22.289Z,39.47
2018-12-10T11:28:51.122Z,38.73
2018-12-10T11:31:19.282Z,39.53
2018-12-10T11:33:47.581Z,38.90
2018-12-10T11:36:15.839Z,38.40
2018-12-10T11:38:44.000Z,38.60
2018-12-10T11:41:13.080Z,38.97
2018-12-10T11:43:41.677Z,38.83
2018-12-10T11:46:09.855Z,38.93
2018-12-10T11:48:38.025Z,39.07
2018-12-10T11:51:06.214Z,39.07
2018-12-10T11:53:34.412Z,38.80
2018-12-10T11:56:03.053Z,38.43
2018-12-10T11:58:31.239Z,39.20
2018-12-10T12:00:59.511Z,38.50
2018-12-10T12:03:27.689Z,38.90
2018-12-10T12:05:55.876Z,39.27
2018-12-10T12:08:24.842Z,38.03
2018-12-10T12:10:53.016Z,38.50
2018-12-10T12:13:21.228Z,38.50
2018-12-10T12:15:49.411Z,38.67
2018-12-10T12:18:17.564Z,39.20
2018-12-10T12:20:45.753Z,38.17
2018-12-10T12:23:13.991Z,37.97
2018-12-10T12:25:42.720Z,38.43
2018-12-10T12:28:10.910Z,38.27
2018-12-10T12:30:39.815Z,38.87
2018-12-10T12:33:08.000Z,39.30
2018-12-10T12:35:36.513Z,38.30
2018-12-10T12:38:04.677Z,38.77
2018-12-10T12:40:32.844Z,38.83
2018-12-10T12:43:06.959Z,38.70
2018-12-10T12:45:31.903Z,38.70
2018-12-10T12:48:00.077Z,38.57
2018-12-10T12:50:28.704Z,39.13
2018-12-10T12:52:56.869Z,38.87
2018-12-10T12:55:25.066Z,39.33
2018-12-10T12:57:53.253Z,38.73
2018-12-10T13:00:26.983Z,38.73
2018-12-10T13:02:51.673Z,38.60
2018-12-10T13:05:20.669Z,38.60
2018-12-10T13:07:48.854Z,38.83
2018-12-10T13:10:17.397Z,38.77
2018-12-10T13:12:45.702Z,38.97
2018-12-10T13:15:13.879Z,39.20
2018-12-10T13:17:42.050Z,38.70
2018-12-10T13:20:10.221Z,38.77
2018-12-10T13:22:47.077Z,38.70
2018-12-10T13:25:09.466Z,39.17
2018-12-10T13:27:38.402Z,40.20
2018-12-10T13:30:07.517Z,39.10
2018-12-10T13:32:35.702Z,39.13
2018-12-10T13:35:04.017Z,38.93
2018-12-10T13:37:32.196Z,38.90
2018-12-10T13:40:00.366Z,38.97
2018-12-10T13:42:28.551Z,39.00
2018-12-10T13:44:59.861Z,39.07
2018-12-10T13:47:28.037Z,38.70
2018-12-10T13:49:56.189Z,38.90
2018-12-10T13:52:24.341Z,39.07
2018-12-10T13:54:52.656Z,38.97
2018-12-10T13:57:20.830Z,39.50
2018-12-10T13:59:48.994Z,40.27
2018-12-10T14:02:17.182Z,38.63
2018-12-10T14:04:46.864Z,39.10
2018-12-10T14:07:15.087Z,39.40
2018-12-10T14:09:45.408Z,39.80
2018-12-10T14:12:14.667Z,39.33
2018-12-10T14:14:43.464Z,39.67
2018-12-10T14:17:13.083Z,39.40
2018-12-10T14:19:42.368Z,39.00
2018-12-10T14:22:12.036Z,38.90
2018-12-10T14:24:40.932Z,39.30
2018-12-10T14:27:09.908Z,38.97
2018-12-10T14:29:39.559Z,39.40
2018-12-10T14:32:08.524Z,38.57
2018-12-10T14:34:37.472Z,38.90
2018-12-10T14:37:05.637Z,39.17
2018-12-10T14:39:33.781Z,39.50
2018-12-10T14:42:02.884Z,39.10
2018-12-10T14:44:31.058Z,40.00
2018-12-10T14:46:59.227Z,39.47
2018-12-10T14:49:27.410Z,39.67
2018-12-10T14:51:55.574Z,39.30
2018-12-10T14:54:26.430Z,39.37
2018-12-10T14:56:55.304Z,39.10
2018-12-10T14:59:24.353Z,38.90
2018-12-10T15:01:53.722Z,38.90
2018-12-10T15:04:22.445Z,38.93
2018-12-10T15:06:51.706Z,38.63
2018-12-10T15:09:21.326Z,38.53
2018-12-10T15:11:52.161Z,38.03
2018-12-10T15:14:21.425Z,38.50
2018-12-10T15:16:50.099Z,38.67
2018-12-10T15:19:20.750Z,38.57
2018-12-10T15:21:50.811Z,37.97
2018-12-10T15:24:20.683Z,37.90
2018-12-10T15:26:49.163Z,38.47
2018-12-10T15:29:18.259Z,37.87
2018-12-10T15:31:48.117Z,38.10
2018-12-10T15:34:17.810Z,38.63
2018-12-10T15:36:46.624Z,40.00
2018-12-10T15:39:15.257Z,40.27
2018-12-10T15:41:43.739Z,39.97
2018-12-10T15:44:11.930Z,39.10
2018-12-10T15:46:40.118Z,39.90
2018-12-10T15:49:08.411Z,39.77
2018-12-10T15:51:36.599Z,39.33
2018-12-10T15:54:04.815Z,38.90
2018-12-10T15:56:32.978Z,39.37
2018-12-10T15:59:01.168Z,38.40
2018-12-10T16:01:29.541Z,39.70
2018-12-10T16:03:57.724Z,38.50
2018-12-10T16:06:25.907Z,39.20
2018-12-10T16:08:54.092Z,38.67
2018-12-10T16:11:22.274Z,38.83
2018-12-10T16:13:50.463Z,38.83
2018-12-10T16:16:18.651Z,38.93
2018-12-10T16:18:46.851Z,39.07
2018-12-10T16:21:15.026Z,39.30
2018-12-10T16:23:43.447Z,39.73
2018-12-10T16:26:11.601Z,39.13
2018-12-10T16:28:39.789Z,39.47
2018-12-10T16:31:08.056Z,39.13
2018-12-10T16:33:36.224Z,38.63
2018-12-10T16:36:05.086Z,40.37
2018-12-10T16:38:33.323Z,39.53
2018-12-10T16:41:01.652Z,39.93
2018-12-10T16:43:29.823Z,39.37
2018-12-10T16:45:57.981Z,39.03
2018-12-10T16:48:26.500Z,39.57
2018-12-10T16:50:54.669Z,39.87
2018-12-10T16:53:22.850Z,39.97
2018-12-10T16:55:51.020Z,40.20
2018-12-10T16:58:19.211Z,39.00
2018-12-10T17:00:47.471Z,39.17
2018-12-10T17:03:15.642Z,38.90
2018-12-10T17:05:43.867Z,40.23
2018-12-10T17:08:12.064Z,39.63
2018-12-10T17:10:40.258Z,39.13
2018-12-10T17:13:08.462Z,38.37
2018-12-10T17:15:36.644Z,39.50
2018-12-10T17:18:04.866Z,39.40
2018-12-10T17:20:33.053Z,39.07
2018-12-10T17:23:01.224Z,39.40
2018-12-10T17:25:29.418Z,39.47
2018-12-10T17:27:57.617Z,39.17
2018-12-10T17:30:26.660Z,39.17
2018-12-10T17:32:55.359Z,39.30
2018-12-10T17:35:23.550Z,39.57
2018-12-10T17:37:51.722Z,39.40
2018-12-10T17:40:19.927Z,38.27
2018-12-10T17:42:48.115Z,38.70
2018-12-10T17:45:16.290Z,38.90
2018-12-10T17:47:44.551Z,40.40
2018-12-10T17:50:13.247Z,39.50
2018-12-10T17:52:41.431Z,40.23
2018-12-10T17:55:10.022Z,40.50
2018-12-10T17:57:38.208Z,41.53
2018-12-10T18:00:08.897Z,41.97
2018-12-10T18:02:37.106Z,41.70
2018-12-10T18:05:06.117Z,42.43
2018-12-10T18:07:34.393Z,40.67
2018-12-10T18:10:02.731Z,41.53
2018-12-10T18:12:30.888Z,40.10
2018-12-10T18:14:59.053Z,40.93
2018-12-10T18:17:27.239Z,41.50
2018-12-10T18:19:55.423Z,41.03
2018-12-10T18:22:23.905Z,40.37
2018-12-10T18:24:52.091Z,40.40
2018-12-10T18:27:20.298Z,40.17
2018-12-10T18:29:48.816Z,39.90
2018-12-10T18:32:16.983Z,40.17
2018-12-10T18:34:45.980Z,40.10
2018-12-10T18:37:14.157Z,40.43
2018-12-10T18:39:42.362Z,40.73
2018-12-10T18:42:10.667Z,40.73
2018-12-10T18:44:39.443Z,39.30
2018-12-10T18:47:07.633Z,39.43
2018-12-10T18:49:36.637Z,39.60
2018-12-10T18:52:04.851Z,40.23
2018-12-10T18:54:33.029Z,40.27
2018-12-10T18:57:01.269Z,39.17
2018-12-10T18:59:29.591Z,39.57
2018-12-10T19:01:57.801Z,40.03
2018-12-10T19:04:26.001Z,41.00
2018-12-10T19:06:54.198Z,40.00
2018-12-10T19:09:22.406Z,41.17
2018-12-10T19:11:50.627Z,40.23
2018-12-10T19:14:18.792Z,40.63
2018-12-10T19:16:46.989Z,41.27
2018-12-10T19:19:16.105Z,40.97
2018-12-10T19:21:45.230Z,41.80
2018-12-10T19:24:13.462Z,40.57
2018-12-10T19:26:41.711Z,41.60
2018-12-10T19:29:09.877Z,40.93
2018-12-10T19:31:38.054Z,41.40
2018-12-10T19:34:06.390Z,41.53
2018-12-10T19:36:34.571Z,41.40
2018-12-10T19:39:02.792Z,42.27
2018-12-10T19:41:31.045Z,42.43
2018-12-10T19:43:59.243Z,42.73
2018-12-10T19:46:27.434Z,41.90
2018-12-10T19:48:55.607Z,42.53
2018-12-10T19:51:23.787Z,43.00
2018-12-10T19:53:52.063Z,42.00
2018-12-10T19:56:20.868Z,42.60
2018-12-10T19:58:49.218Z,42.43
2018-12-10T20:01:17.373Z,43.07
2018-12-10T20:03:45.551Z,42.30
2018-12-10T20:06:15.875Z,44.13
2018-12-10T20:08:44.057Z,45.93
2018-12-10T20:11:12.231Z,45.50
2018-12-10T20:13:40.424Z,45.77
2018-12-10T20:16:08.734Z,45.23
2018-12-10T20:18:36.922Z,43.27
2018-12-10T20:21:05.271Z,42.83
2018-12-10T20:23:33.439Z,42.30
2018-12-10T20:26:01.975Z,43.73
2018-12-10T20:28:30.316Z,43.23
2018-12-10T20:30:58.503Z,42.47
2018-12-10T20:33:26.794Z,43.00
2018-12-10T20:35:55.032Z,42.40
2018-12-10T20:38:23.852Z,42.87
2018-12-10T20:40:52.222Z,42.43
2018-12-10T20:43:20.674Z,42.77
2018-12-10T20:45:49.349Z,42.33
2018-12-10T20:48:17.522Z,41.53
2018-12-10T20:50:45.724Z,41.93
2018-12-10T20:53:13.908Z,42.20
2018-12-10T20:55:42.112Z,42.03
2018-12-10T20:58:10.304Z,41.97
2018-12-10T21:00:38.579Z,41.70
2018-12-10T21:03:06.755Z,41.67
2018-12-10T21:05:37.043Z,42.47
2018-12-10T21:08:05.264Z,42.90
2018-12-10T21:10:33.455Z,42.43
2018-12-10T21:13:01.634Z,41.67
2018-12-10T21:15:30.030Z,42.40
2018-12-10T21:17:58.220Z,42.60
2018-12-10T21:20:26.401Z,42.27
2018-12-10T21:22:54.636Z,42.50
2018-12-10T21:25:22.810Z,41.87
2018-12-10T21:27:50.977Z,42.20
2018-12-10T21:30:19.155Z,42.70
2018-12-10T21:32:48.389Z,41.20
2018-12-10T21:35:16.908Z,41.93
2018-12-10T21:37:45.081Z,41.83
2018-12-10T21:40:13.237Z,41.80
2018-12-10T21:42:41.411Z,41.80
2018-12-10T21:45:09.716Z,42.20
2018-12-10T21:47:37.927Z,41.53
2018-12-10T21:50:06.237Z,40.90
2018-12-10T21:52:34.412Z,41.63
2018-12-10T21:55:02.588Z,42.47
2018-12-10T21:57:30.748Z,41.87
2018-12-10T21:59:59.332Z,42.20
2018-12-10T22:02:27.605Z,41.17
2018-12-10T22:04:55.803Z,41.73
2018-12-10T22:07:23.996Z,41.60
2018-12-10T22:09:52.145Z,41.23
2018-12-10T22:12:20.323Z,42.13
2018-12-10T22:14:48.519Z,41.73
2018-12-10T22:17:16.707Z,40.63
2018-12-10T22:19:44.894Z,40.77
2018-12-10T22:22:13.085Z,40.37
2018-12-10T22:24:41.258Z,41.30
2018-12-10T22:27:09.435Z,41.93
2018-12-10T22:29:37.639Z,40.70
2018-12-10T22:32:05.835Z,41.83
2018-12-10T22:34:33.992Z,40.87
2018-12-10T22:37:02.151Z,40.50
2018-12-10T22:39:30.331Z,40.67
2018-12-10T22:41:58.509Z,41.17
2018-12-10T22:44:26.745Z,41.30
2018-12-10T22:46:55.289Z,40.40
2018-12-10T22:49:23.456Z,39.67
2018-12-10T22:51:51.616Z,40.00
2018-12-10T22:54:19.826Z,40.33
2018-12-10T22:56:47.998Z,41.03
2018-12-10T22:59:16.163Z,40.43
2018-12-10T23:01:44.347Z,41.07
2018-12-10T23:04:12.599Z,40.20
2018-12-10T23:06:42.012Z,41.50
2018-12-10T23:09:10.181Z,40.80
2018-12-10T23:11:38.333Z,40.97
2018-12-10T23:14:06.498Z,40.37
2018-12-10T23:16:34.680Z,40.70
2018-12-10T23:19:02.845Z,41.00
2018-12-10T23:21:30.998Z,40.87
2018-12-10T23:23:59.164Z,40.93
2018-12-10T23:26:27.323Z,40.10
2018-12-10T23:28:55.505Z,40.77
2018-12-10T23:31:23.693Z,41.30
2018-12-10T23:33:51.846Z,40.33
2018-12-10T23:36:20.140Z,40.83
2018-12-10T23:38:48.370Z,40.00
2018-12-10T23:41:16.677Z,41.30
2018-12-10T23:43:44.844Z,40.83
2018-12-10T23:46:13.024Z,40.63
2018-12-10T23:48:41.185Z,40.37
2018-12-10T23:51:09.360Z,40.73
2018-12-10T23:53:37.536Z,40.50
2018-12-10T23:56:05.691Z,40.70
2018-12-10T23:58:33.890Z,40.40
